sensor_id;sensor_type;location;lat;lon;timestamp;P1;durP1;ratioP1;P2;durP2;ratioP2
74532;SDS011;63012;51.096;-115.366;2022-09-09T00:02:22;6.80;;;2.40;;
74532;SDS011;63012;51.096;-115.366;2022-09-09T00:07:47;6.10;;;2.00;;
74532;SDS011;63012;51.096;-115.366;2022-09-09T00:10:28;6.50;;;1.80;;
74532;SDS011;63012;51.096;-115.366;2022-09-09T00:16:15;5.70;;;2.10;;
74532;SDS011;63012;51.096;-115.366;2022-09-09T00:24:44;6.90;;;1.90;;
74532;SDS011;63012;51.096;-115.366;2022-09-09T00:27:53;6.40;;;2.20;;
74532;SDS011;63012;51.096;-115.366;2022-09-09T00:30:31;6.00;;;2.70;;
74532;SDS011;63012;51.096;-115.366;2022-09-09T00:33:11;6.60;;;2.50;;
74532;SDS011;63012;51.096;-115.366;2022-09-09T00:35:49;5.80;;;2.00;;
74532;SDS011;63012;51.096;-115.366;2022-09-09T00:38:24;5.10;;;1.50;;
74532;SDS011;63012;51.096;-115.366;2022-09-09T00:41:17;6.10;;;2.20;;
74532;SDS011;63012;51.096;-115.366;2022-09-09T00:44:24;7.00;;;2.00;;
74532;SDS011;63012;51.096;-115.366;2022-09-09T00:50:35;5.50;;;2.10;;
74532;SDS011;63012;51.096;-115.366;2022-09-09T00:56:05;6.00;;;2.00;;
74532;SDS011;63012;51.096;-115.366;2022-09-09T00:58:50;7.50;;;2.00;;
74532;SDS011;63012;51.096;-115.366;2022-09-09T01:01:22;6.50;;;1.90;;
74532;SDS011;63012;51.096;-115.366;2022-09-09T01:03:55;5.90;;;2.00;;
74532;SDS011;63012;51.096;-115.366;2022-09-09T01:06:33;5.50;;;2.30;;
74532;SDS011;63012;51.096;-115.366;2022-09-09T01:09:16;6.70;;;1.70;;
74532;SDS011;63012;51.096;-115.366;2022-09-09T01:12:43;7.20;;;2.30;;
74532;SDS011;63012;51.096;-115.366;2022-09-09T01:15:28;6.00;;;1.90;;
74532;SDS011;63012;51.096;-115.366;2022-09-09T01:18:10;7.40;;;2.00;;
74532;SDS011;63012;51.096;-115.366;2022-09-09T01:28:51;6.30;;;2.00;;
74532;SDS011;63012;51.096;-115.366;2022-09-09T01:31:23;5.70;;;1.70;;
74532;SDS011;63012;51.096;-115.366;2022-09-09T01:33:55;5.10;;;1.80;;
74532;SDS011;63012;51.096;-115.366;2022-09-09T01:36:34;5.30;;;1.80;;
74532;SDS011;63012;51.096;-115.366;2022-09-09T01:39:22;6.10;;;2.00;;
74532;SDS011;63012;51.096;-115.366;2022-09-09T01:41:49;5.20;;;1.60;;
74532;SDS011;63012;51.096;-115.366;2022-09-09T01:44:17;5.40;;;2.10;;
74532;SDS011;63012;51.096;-115.366;2022-09-09T01:46:46;6.00;;;1.80;;
74532;SDS011;63012;51.096;-115.366;2022-09-09T01:49:13;6.30;;;1.90;;
74532;SDS011;63012;51.096;-115.366;2022-09-09T01:51:41;5.40;;;1.70;;
74532;SDS011;63012;51.096;-115.366;2022-09-09T01:54:10;5.60;;;1.80;;
74532;SDS011;63012;51.096;-115.366;2022-09-09T02:00:00;6.10;;;2.00;;
74532;SDS011;63012;51.096;-115.366;2022-09-09T02:02:59;5.60;;;1.60;;
74532;SDS011;63012;51.096;-115.366;2022-09-09T02:08:15;5.00;;;1.40;;
74532;SDS011;63012;51.096;-115.366;2022-09-09T02:11:11;6.40;;;1.90;;
74532;SDS011;63012;51.096;-115.366;2022-09-09T02:13:43;5.20;;;1.90;;
74532;SDS011;63012;51.096;-115.366;2022-09-09T02:16:26;4.90;;;1.60;;
74532;SDS011;63012;51.096;-115.366;2022-09-09T02:19:19;5.60;;;1.80;;
74532;SDS011;63012;51.096;-115.366;2022-09-09T02:21:55;5.90;;;2.30;;
74532;SDS011;63012;51.096;-115.366;2022-09-09T02:24:31;5.60;;;1.80;;
74532;SDS011;63012;51.096;-115.366;2022-09-09T02:27:04;5.90;;;1.80;;
74532;SDS011;63012;51.096;-115.366;2022-09-09T02:29:40;5.40;;;1.90;;
74532;SDS011;63012;51.096;-115.366;2022-09-09T02:32:23;5.50;;;1.70;;
74532;SDS011;63012;51.096;-115.366;2022-09-09T02:34:58;5.40;;;1.90;;
74532;SDS011;63012;51.096;-115.366;2022-09-09T02:37:41;5.20;;;1.50;;
74532;SDS011;63012;51.096;-115.366;2022-09-09T02:40:13;5.60;;;1.60;;
74532;SDS011;63012;51.096;-115.366;2022-09-09T02:42:46;5.50;;;1.70;;
74532;SDS011;63012;51.096;-115.366;2022-09-09T02:45:27;4.80;;;1.40;;
74532;SDS011;63012;51.096;-115.366;2022-09-09T02:48:51;5.30;;;1.80;;
74532;SDS011;63012;51.096;-115.366;2022-09-09T02:54:35;5.60;;;1.90;;
74532;SDS011;63012;51.096;-115.366;2022-09-09T02:57:25;4.70;;;1.50;;
74532;SDS011;63012;51.096;-115.366;2022-09-09T02:59:57;5.10;;;1.50;;
74532;SDS011;63012;51.096;-115.366;2022-09-09T03:02:26;5.60;;;1.80;;
74532;SDS011;63012;51.096;-115.366;2022-09-09T03:04:53;5.60;;;1.60;;
74532;SDS011;63012;51.096;-115.366;2022-09-09T03:07:21;5.10;;;1.80;;
74532;SDS011;63012;51.096;-115.366;2022-09-09T03:09:48;5.40;;;1.70;;
74532;SDS011;63012;51.096;-115.366;2022-09-09T03:12:15;5.40;;;1.70;;
74532;SDS011;63012;51.096;-115.366;2022-09-09T03:14:45;5.90;;;1.80;;
74532;SDS011;63012;51.096;-115.366;2022-09-09T03:17:13;5.30;;;1.70;;
74532;SDS011;63012;51.096;-115.366;2022-09-09T03:19:40;5.10;;;1.80;;
74532;SDS011;63012;51.096;-115.366;2022-09-09T03:22:10;5.90;;;1.80;;
74532;SDS011;63012;51.096;-115.366;2022-09-09T03:24:37;5.40;;;1.60;;
74532;SDS011;63012;51.096;-115.366;2022-09-09T03:27:08;5.60;;;1.50;;
74532;SDS011;63012;51.096;-115.366;2022-09-09T03:29:35;5.30;;;1.60;;
74532;SDS011;63012;51.096;-115.366;2022-09-09T03:32:11;5.40;;;1.80;;
74532;SDS011;63012;51.096;-115.366;2022-09-09T03:34:39;5.20;;;1.40;;
74532;SDS011;63012;51.096;-115.366;2022-09-09T03:37:10;4.70;;;1.50;;
74532;SDS011;63012;51.096;-115.366;2022-09-09T03:39:37;5.80;;;1.70;;
74532;SDS011;63012;51.096;-115.366;2022-09-09T03:42:04;5.20;;;1.80;;
74532;SDS011;63012;51.096;-115.366;2022-09-09T03:44:32;5.40;;;1.80;;
74532;SDS011;63012;51.096;-115.366;2022-09-09T03:46:59;5.60;;;1.80;;
74532;SDS011;63012;51.096;-115.366;2022-09-09T03:49:26;5.20;;;1.70;;
74532;SDS011;63012;51.096;-115.366;2022-09-09T03:52:00;5.00;;;1.50;;
74532;SDS011;63012;51.096;-115.366;2022-09-09T03:54:27;5.60;;;2.10;;
74532;SDS011;63012;51.096;-115.366;2022-09-09T03:56:58;5.10;;;1.80;;
74532;SDS011;63012;51.096;-115.366;2022-09-09T03:59:30;4.90;;;1.50;;
74532;SDS011;63012;51.096;-115.366;2022-09-09T04:01:58;5.40;;;1.70;;
74532;SDS011;63012;51.096;-115.366;2022-09-09T04:04:40;5.10;;;1.70;;
74532;SDS011;63012;51.096;-115.366;2022-09-09T04:07:07;5.50;;;1.80;;
74532;SDS011;63012;51.096;-115.366;2022-09-09T04:09:43;5.30;;;1.90;;
74532;SDS011;63012;51.096;-115.366;2022-09-09T04:12:10;4.90;;;1.60;;
74532;SDS011;63012;51.096;-115.366;2022-09-09T04:14:46;5.10;;;1.70;;
74532;SDS011;63012;51.096;-115.366;2022-09-09T04:17:14;5.20;;;1.60;;
74532;SDS011;63012;51.096;-115.366;2022-09-09T04:19:50;4.90;;;1.50;;
74532;SDS011;63012;51.096;-115.366;2022-09-09T04:22:17;5.50;;;1.90;;
74532;SDS011;63012;51.096;-115.366;2022-09-09T04:24:46;5.20;;;1.50;;
74532;SDS011;63012;51.096;-115.366;2022-09-09T04:27:14;4.50;;;1.30;;
74532;SDS011;63012;51.096;-115.366;2022-09-09T04:29:50;4.80;;;1.40;;
74532;SDS011;63012;51.096;-115.366;2022-09-09T04:32:26;5.30;;;1.70;;
74532;SDS011;63012;51.096;-115.366;2022-09-09T04:34:53;5.40;;;1.70;;
74532;SDS011;63012;51.096;-115.366;2022-09-09T04:40:06;4.30;;;1.50;;
74532;SDS011;63012;51.096;-115.366;2022-09-09T04:42:47;4.90;;;1.50;;
74532;SDS011;63012;51.096;-115.366;2022-09-09T04:45:16;5.20;;;1.60;;
74532;SDS011;63012;51.096;-115.366;2022-09-09T04:47:44;5.30;;;1.60;;
74532;SDS011;63012;51.096;-115.366;2022-09-09T04:50:11;4.40;;;1.30;;
74532;SDS011;63012;51.096;-115.366;2022-09-09T04:52:48;5.60;;;1.90;;
74532;SDS011;63012;51.096;-115.366;2022-09-09T04:55:15;5.40;;;1.70;;
74532;SDS011;63012;51.096;-115.366;2022-09-09T04:57:42;5.70;;;1.80;;
74532;SDS011;63012;51.096;-115.366;2022-09-09T05:00:10;4.90;;;1.70;;
74532;SDS011;63012;51.096;-115.366;2022-09-09T05:02:42;4.20;;;1.40;;
74532;SDS011;63012;51.096;-115.366;2022-09-09T05:05:12;4.40;;;1.30;;
74532;SDS011;63012;51.096;-115.366;2022-09-09T05:07:42;4.60;;;1.30;;
74532;SDS011;63012;51.096;-115.366;2022-09-09T05:10:18;4.60;;;1.40;;
74532;SDS011;63012;51.096;-115.366;2022-09-09T05:13:14;5.20;;;1.90;;
74532;SDS011;63012;51.096;-115.366;2022-09-09T05:15:50;5.50;;;1.50;;
74532;SDS011;63012;51.096;-115.366;2022-09-09T05:18:19;4.60;;;1.60;;
74532;SDS011;63012;51.096;-115.366;2022-09-09T05:20:52;5.00;;;1.50;;
74532;SDS011;63012;51.096;-115.366;2022-09-09T05:23:24;5.40;;;1.80;;
74532;SDS011;63012;51.096;-115.366;2022-09-09T05:25:58;4.90;;;1.50;;
74532;SDS011;63012;51.096;-115.366;2022-09-09T05:28:34;4.80;;;1.70;;
74532;SDS011;63012;51.096;-115.366;2022-09-09T05:31:06;4.80;;;1.80;;
74532;SDS011;63012;51.096;-115.366;2022-09-09T05:33:54;4.80;;;1.80;;
74532;SDS011;63012;51.096;-115.366;2022-09-09T05:36:27;5.00;;;1.50;;
74532;SDS011;63012;51.096;-115.366;2022-09-09T05:39:00;4.60;;;1.50;;
74532;SDS011;63012;51.096;-115.366;2022-09-09T05:41:30;6.10;;;1.60;;
74532;SDS011;63012;51.096;-115.366;2022-09-09T05:44:21;4.70;;;1.60;;
74532;SDS011;63012;51.096;-115.366;2022-09-09T05:46:53;5.70;;;1.90;;
74532;SDS011;63012;51.096;-115.366;2022-09-09T05:49:20;4.80;;;1.40;;
74532;SDS011;63012;51.096;-115.366;2022-09-09T05:51:58;4.20;;;1.30;;
74532;SDS011;63012;51.096;-115.366;2022-09-09T05:54:45;5.30;;;1.60;;
74532;SDS011;63012;51.096;-115.366;2022-09-09T05:57:12;4.80;;;1.50;;
74532;SDS011;63012;51.096;-115.366;2022-09-09T05:59:39;4.80;;;1.40;;
74532;SDS011;63012;51.096;-115.366;2022-09-09T06:02:16;4.30;;;1.30;;
74532;SDS011;63012;51.096;-115.366;2022-09-09T06:04:52;5.30;;;1.80;;
74532;SDS011;63012;51.096;-115.366;2022-09-09T06:07:30;4.90;;;1.60;;
74532;SDS011;63012;51.096;-115.366;2022-09-09T06:10:06;5.20;;;1.80;;
74532;SDS011;63012;51.096;-115.366;2022-09-09T06:12:37;4.70;;;1.70;;
74532;SDS011;63012;51.096;-115.366;2022-09-09T06:15:26;5.70;;;1.60;;
74532;SDS011;63012;51.096;-115.366;2022-09-09T06:18:08;4.70;;;1.30;;
74532;SDS011;63012;51.096;-115.366;2022-09-09T06:21:07;4.30;;;1.30;;
74532;SDS011;63012;51.096;-115.366;2022-09-09T06:23:39;4.80;;;1.50;;
74532;SDS011;63012;51.096;-115.366;2022-09-09T06:26:23;4.90;;;1.40;;
74532;SDS011;63012;51.096;-115.366;2022-09-09T06:29:10;4.80;;;1.70;;
74532;SDS011;63012;51.096;-115.366;2022-09-09T06:31:38;4.70;;;1.60;;
74532;SDS011;63012;51.096;-115.366;2022-09-09T06:34:08;5.10;;;1.70;;
74532;SDS011;63012;51.096;-115.366;2022-09-09T06:36:37;4.40;;;1.30;;
74532;SDS011;63012;51.096;-115.366;2022-09-09T06:39:08;5.50;;;1.60;;
74532;SDS011;63012;51.096;-115.366;2022-09-09T06:41:57;5.20;;;1.90;;
74532;SDS011;63012;51.096;-115.366;2022-09-09T06:44:25;4.40;;;1.40;;
74532;SDS011;63012;51.096;-115.366;2022-09-09T06:47:10;4.80;;;1.50;;
74532;SDS011;63012;51.096;-115.366;2022-09-09T06:49:57;4.90;;;1.60;;
74532;SDS011;63012;51.096;-115.366;2022-09-09T06:52:28;5.30;;;1.70;;
74532;SDS011;63012;51.096;-115.366;2022-09-09T06:55:04;4.80;;;1.60;;
74532;SDS011;63012;51.096;-115.366;2022-09-09T06:57:34;4.70;;;1.40;;
74532;SDS011;63012;51.096;-115.366;2022-09-09T07:00:05;5.10;;;1.60;;
74532;SDS011;63012;51.096;-115.366;2022-09-09T07:02:32;5.50;;;1.90;;
74532;SDS011;63012;51.096;-115.366;2022-09-09T07:05:10;5.20;;;1.50;;
74532;SDS011;63012;51.096;-115.366;2022-09-09T07:07:40;4.60;;;1.10;;
74532;SDS011;63012;51.096;-115.366;2022-09-09T07:10:28;5.30;;;1.80;;
74532;SDS011;63012;51.096;-115.366;2022-09-09T07:13:04;4.30;;;1.50;;
74532;SDS011;63012;51.096;-115.366;2022-09-09T07:15:41;4.00;;;1.20;;
74532;SDS011;63012;51.096;-115.366;2022-09-09T07:18:28;5.20;;;1.60;;
74532;SDS011;63012;51.096;-115.366;2022-09-09T07:21:05;4.20;;;1.30;;
74532;SDS011;63012;51.096;-115.366;2022-09-09T07:23:38;4.80;;;1.60;;
74532;SDS011;63012;51.096;-115.366;2022-09-09T07:26:21;4.60;;;1.50;;
74532;SDS011;63012;51.096;-115.366;2022-09-09T07:28:53;4.80;;;1.40;;
74532;SDS011;63012;51.096;-115.366;2022-09-09T07:31:27;4.60;;;1.40;;
74532;SDS011;63012;51.096;-115.366;2022-09-09T07:34:03;4.50;;;1.20;;
74532;SDS011;63012;51.096;-115.366;2022-09-09T07:36:38;4.60;;;1.40;;
74532;SDS011;63012;51.096;-115.366;2022-09-09T07:39:14;4.30;;;1.30;;
74532;SDS011;63012;51.096;-115.366;2022-09-09T07:42:04;3.90;;;1.30;;
74532;SDS011;63012;51.096;-115.366;2022-09-09T07:44:35;4.30;;;1.30;;
74532;SDS011;63012;51.096;-115.366;2022-09-09T07:47:09;5.00;;;1.40;;
74532;SDS011;63012;51.096;-115.366;2022-09-09T07:49:46;4.30;;;1.30;;
74532;SDS011;63012;51.096;-115.366;2022-09-09T07:52:15;4.50;;;1.30;;
74532;SDS011;63012;51.096;-115.366;2022-09-09T07:54:51;4.30;;;1.10;;
74532;SDS011;63012;51.096;-115.366;2022-09-09T07:57:19;4.70;;;1.30;;
74532;SDS011;63012;51.096;-115.366;2022-09-09T07:59:56;4.70;;;1.30;;
74532;SDS011;63012;51.096;-115.366;2022-09-09T08:02:46;4.60;;;1.30;;
74532;SDS011;63012;51.096;-115.366;2022-09-09T08:05:16;4.40;;;1.20;;
74532;SDS011;63012;51.096;-115.366;2022-09-09T08:07:44;4.20;;;1.20;;
74532;SDS011;63012;51.096;-115.366;2022-09-09T08:10:31;4.70;;;1.30;;
74532;SDS011;63012;51.096;-115.366;2022-09-09T08:13:11;3.90;;;1.10;;
74532;SDS011;63012;51.096;-115.366;2022-09-09T08:15:45;4.20;;;1.30;;
74532;SDS011;63012;51.096;-115.366;2022-09-09T08:18:13;3.80;;;1.10;;
74532;SDS011;63012;51.096;-115.366;2022-09-09T08:21:09;4.90;;;1.40;;
74532;SDS011;63012;51.096;-115.366;2022-09-09T08:23:44;4.60;;;1.30;;
74532;SDS011;63012;51.096;-115.366;2022-09-09T08:26:42;4.20;;;1.10;;
74532;SDS011;63012;51.096;-115.366;2022-09-09T08:29:32;3.80;;;1.00;;
74532;SDS011;63012;51.096;-115.366;2022-09-09T08:32:02;5.00;;;1.60;;
74532;SDS011;63012;51.096;-115.366;2022-09-09T08:34:37;4.30;;;1.00;;
74532;SDS011;63012;51.096;-115.366;2022-09-09T08:37:15;3.90;;;1.30;;
74532;SDS011;63012;51.096;-115.366;2022-09-09T08:39:56;4.20;;;1.20;;
74532;SDS011;63012;51.096;-115.366;2022-09-09T08:42:40;5.00;;;1.50;;
74532;SDS011;63012;51.096;-115.366;2022-09-09T08:45:55;4.30;;;1.50;;
74532;SDS011;63012;51.096;-115.366;2022-09-09T08:51:31;5.00;;;1.50;;
74532;SDS011;63012;51.096;-115.366;2022-09-09T08:54:19;5.00;;;1.40;;
74532;SDS011;63012;51.096;-115.366;2022-09-09T08:56:57;4.10;;;1.20;;
74532;SDS011;63012;51.096;-115.366;2022-09-09T08:59:34;4.40;;;1.20;;
74532;SDS011;63012;51.096;-115.366;2022-09-09T09:05:59;5.00;;;1.40;;
74532;SDS011;63012;51.096;-115.366;2022-09-09T09:11:33;4.20;;;1.60;;
74532;SDS011;63012;51.096;-115.366;2022-09-09T09:17:02;4.20;;;1.20;;
74532;SDS011;63012;51.096;-115.366;2022-09-09T09:19:48;4.40;;;1.20;;
74532;SDS011;63012;51.096;-115.366;2022-09-09T09:25:29;4.40;;;1.30;;
74532;SDS011;63012;51.096;-115.366;2022-09-09T09:28:25;4.60;;;1.40;;
74532;SDS011;63012;51.096;-115.366;2022-09-09T09:31:06;4.60;;;1.10;;
74532;SDS011;63012;51.096;-115.366;2022-09-09T09:36:24;4.20;;;1.20;;
74532;SDS011;63012;51.096;-115.366;2022-09-09T09:39:10;3.70;;;1.10;;
74532;SDS011;63012;51.096;-115.366;2022-09-09T09:41:57;4.20;;;1.30;;
74532;SDS011;63012;51.096;-115.366;2022-09-09T09:44:35;3.90;;;1.30;;
74532;SDS011;63012;51.096;-115.366;2022-09-09T09:47:30;4.20;;;1.40;;
74532;SDS011;63012;51.096;-115.366;2022-09-09T09:50:02;5.20;;;1.20;;
74532;SDS011;63012;51.096;-115.366;2022-09-09T09:52:33;5.20;;;1.70;;
74532;SDS011;63012;51.096;-115.366;2022-09-09T09:55:28;4.70;;;1.20;;
74532;SDS011;63012;51.096;-115.366;2022-09-09T09:58:15;4.10;;;1.20;;
74532;SDS011;63012;51.096;-115.366;2022-09-09T10:01:23;4.30;;;1.50;;
74532;SDS011;63012;51.096;-115.366;2022-09-09T10:04:41;4.10;;;1.20;;
74532;SDS011;63012;51.096;-115.366;2022-09-09T10:07:25;5.00;;;1.30;;
74532;SDS011;63012;51.096;-115.366;2022-09-09T10:10:03;4.00;;;1.30;;
74532;SDS011;63012;51.096;-115.366;2022-09-09T10:26:17;4.20;;;1.30;;
74532;SDS011;63012;51.096;-115.366;2022-09-09T10:29:22;3.80;;;1.10;;
74532;SDS011;63012;51.096;-115.366;2022-09-09T10:33:32;4.10;;;1.30;;
74532;SDS011;63012;51.096;-115.366;2022-09-09T10:36:42;4.30;;;1.00;;
74532;SDS011;63012;51.096;-115.366;2022-09-09T10:42:43;4.10;;;1.20;;
74532;SDS011;63012;51.096;-115.366;2022-09-09T10:45:43;3.90;;;1.20;;
74532;SDS011;63012;51.096;-115.366;2022-09-09T10:49:19;4.30;;;1.20;;
74532;SDS011;63012;51.096;-115.366;2022-09-09T10:56:08;4.40;;;1.10;;
74532;SDS011;63012;51.096;-115.366;2022-09-09T10:59:05;3.90;;;1.10;;
74532;SDS011;63012;51.096;-115.366;2022-09-09T11:02:05;3.90;;;1.10;;
74532;SDS011;63012;51.096;-115.366;2022-09-09T11:08:36;4.00;;;1.20;;
74532;SDS011;63012;51.096;-115.366;2022-09-09T11:11:38;3.50;;;0.90;;
74532;SDS011;63012;51.096;-115.366;2022-09-09T11:14:36;4.20;;;1.20;;
74532;SDS011;63012;51.096;-115.366;2022-09-09T11:17:35;4.30;;;1.00;;
74532;SDS011;63012;51.096;-115.366;2022-09-09T11:20:14;4.30;;;1.30;;
74532;SDS011;63012;51.096;-115.366;2022-09-09T11:26:35;4.60;;;1.30;;
74532;SDS011;63012;51.096;-115.366;2022-09-09T11:36:18;4.80;;;1.70;;
74532;SDS011;63012;51.096;-115.366;2022-09-09T11:42:25;4.30;;;1.10;;
74532;SDS011;63012;51.096;-115.366;2022-09-09T11:44:53;4.00;;;1.10;;
74532;SDS011;63012;51.096;-115.366;2022-09-09T11:47:41;4.70;;;1.10;;
74532;SDS011;63012;51.096;-115.366;2022-09-09T11:50:29;4.40;;;1.70;;
74532;SDS011;63012;51.096;-115.366;2022-09-09T11:53:21;4.30;;;1.10;;
74532;SDS011;63012;51.096;-115.366;2022-09-09T11:56:22;4.30;;;1.20;;
74532;SDS011;63012;51.096;-115.366;2022-09-09T11:59:25;4.20;;;1.40;;
74532;SDS011;63012;51.096;-115.366;2022-09-09T12:02:27;3.70;;;1.20;;
74532;SDS011;63012;51.096;-115.366;2022-09-09T12:05:09;5.10;;;1.00;;
74532;SDS011;63012;51.096;-115.366;2022-09-09T12:11:03;3.50;;;0.90;;
74532;SDS011;63012;51.096;-115.366;2022-09-09T12:13:55;4.00;;;1.30;;
74532;SDS011;63012;51.096;-115.366;2022-09-09T12:16:46;3.40;;;0.70;;
74532;SDS011;63012;51.096;-115.366;2022-09-09T12:19:22;3.80;;;1.10;;
74532;SDS011;63012;51.096;-115.366;2022-09-09T12:32:28;3.50;;;0.90;;
74532;SDS011;63012;51.096;-115.366;2022-09-09T12:35:30;3.50;;;0.90;;
74532;SDS011;63012;51.096;-115.366;2022-09-09T12:38:13;4.20;;;0.90;;
74532;SDS011;63012;51.096;-115.366;2022-09-09T12:40:58;3.60;;;1.20;;
74532;SDS011;63012;51.096;-115.366;2022-09-09T12:43:27;3.40;;;0.80;;
74532;SDS011;63012;51.096;-115.366;2022-09-09T12:46:01;3.50;;;1.00;;
74532;SDS011;63012;51.096;-115.366;2022-09-09T12:48:41;4.00;;;1.00;;
74532;SDS011;63012;51.096;-115.366;2022-09-09T12:51:40;3.90;;;1.00;;
74532;SDS011;63012;51.096;-115.366;2022-09-09T12:54:28;3.80;;;1.10;;
74532;SDS011;63012;51.096;-115.366;2022-09-09T12:57:19;3.90;;;1.30;;
74532;SDS011;63012;51.096;-115.366;2022-09-09T13:00:15;3.30;;;0.80;;
74532;SDS011;63012;51.096;-115.366;2022-09-09T13:03:00;3.50;;;0.90;;
74532;SDS011;63012;51.096;-115.366;2022-09-09T13:06:18;4.00;;;1.00;;
74532;SDS011;63012;51.096;-115.366;2022-09-09T13:09:10;3.10;;;0.70;;
74532;SDS011;63012;51.096;-115.366;2022-09-09T13:11:52;4.10;;;1.00;;
74532;SDS011;63012;51.096;-115.366;2022-09-09T13:15:24;4.10;;;1.10;;
74532;SDS011;63012;51.096;-115.366;2022-09-09T13:17:59;3.90;;;1.10;;
74532;SDS011;63012;51.096;-115.366;2022-09-09T13:20:47;3.20;;;0.80;;
74532;SDS011;63012;51.096;-115.366;2022-09-09T13:23:19;3.60;;;1.00;;
74532;SDS011;63012;51.096;-115.366;2022-09-09T13:26:00;3.90;;;1.10;;
74532;SDS011;63012;51.096;-115.366;2022-09-09T13:28:46;4.10;;;1.10;;
74532;SDS011;63012;51.096;-115.366;2022-09-09T13:31:32;3.80;;;1.10;;
74532;SDS011;63012;51.096;-115.366;2022-09-09T13:34:13;3.70;;;1.20;;
74532;SDS011;63012;51.096;-115.366;2022-09-09T13:40:22;3.90;;;1.20;;
74532;SDS011;63012;51.096;-115.366;2022-09-09T13:49:44;3.90;;;1.30;;
74532;SDS011;63012;51.096;-115.366;2022-09-09T13:52:24;3.80;;;1.10;;
74532;SDS011;63012;51.096;-115.366;2022-09-09T13:55:02;4.50;;;1.70;;
74532;SDS011;63012;51.096;-115.366;2022-09-09T13:57:39;3.80;;;1.20;;
74532;SDS011;63012;51.096;-115.366;2022-09-09T14:00:26;3.40;;;1.00;;
74532;SDS011;63012;51.096;-115.366;2022-09-09T14:03:26;3.20;;;0.80;;
74532;SDS011;63012;51.096;-115.366;2022-09-09T14:06:12;3.40;;;0.80;;
74532;SDS011;63012;51.096;-115.366;2022-09-09T14:08:59;3.90;;;0.90;;
74532;SDS011;63012;51.096;-115.366;2022-09-09T14:11:47;4.20;;;1.10;;
74532;SDS011;63012;51.096;-115.366;2022-09-09T14:14:25;4.40;;;1.00;;
74532;SDS011;63012;51.096;-115.366;2022-09-09T14:16:59;3.40;;;0.90;;
74532;SDS011;63012;51.096;-115.366;2022-09-09T14:22:49;4.10;;;0.90;;
74532;SDS011;63012;51.096;-115.366;2022-09-09T14:25:39;3.20;;;0.80;;
74532;SDS011;63012;51.096;-115.366;2022-09-09T14:28:30;2.80;;;0.60;;
74532;SDS011;63012;51.096;-115.366;2022-09-09T14:31:00;2.90;;;0.60;;
74532;SDS011;63012;51.096;-115.366;2022-09-09T14:33:40;4.90;;;1.30;;
74532;SDS011;63012;51.096;-115.366;2022-09-09T14:36:37;4.30;;;1.20;;
74532;SDS011;63012;51.096;-115.366;2022-09-09T14:39:33;4.00;;;1.10;;
74532;SDS011;63012;51.096;-115.366;2022-09-09T14:42:00;3.80;;;1.00;;
74532;SDS011;63012;51.096;-115.366;2022-09-09T14:44:28;3.50;;;0.60;;
74532;SDS011;63012;51.096;-115.366;2022-09-09T14:47:28;3.40;;;0.80;;
74532;SDS011;63012;51.096;-115.366;2022-09-09T14:53:24;3.70;;;1.00;;
74532;SDS011;63012;51.096;-115.366;2022-09-09T14:56:11;3.80;;;0.90;;
74532;SDS011;63012;51.096;-115.366;2022-09-09T14:58:44;3.00;;;0.80;;
74532;SDS011;63012;51.096;-115.366;2022-09-09T15:01:21;3.60;;;0.60;;
74532;SDS011;63012;51.096;-115.366;2022-09-09T15:04:00;3.40;;;0.80;;
74532;SDS011;63012;51.096;-115.366;2022-09-09T15:09:53;4.10;;;1.00;;
74532;SDS011;63012;51.096;-115.366;2022-09-09T15:12:35;3.60;;;0.80;;
74532;SDS011;63012;51.096;-115.366;2022-09-09T15:15:22;3.60;;;0.60;;
74532;SDS011;63012;51.096;-115.366;2022-09-09T15:18:18;3.20;;;0.90;;
74532;SDS011;63012;51.096;-115.366;2022-09-09T15:21:25;3.30;;;0.70;;
74532;SDS011;63012;51.096;-115.366;2022-09-09T15:24:41;3.70;;;0.90;;
74532;SDS011;63012;51.096;-115.366;2022-09-09T15:27:17;4.00;;;1.00;;
74532;SDS011;63012;51.096;-115.366;2022-09-09T15:30:06;3.50;;;0.80;;
74532;SDS011;63012;51.096;-115.366;2022-09-09T15:33:09;4.40;;;1.20;;
74532;SDS011;63012;51.096;-115.366;2022-09-09T15:35:41;4.50;;;0.90;;
74532;SDS011;63012;51.096;-115.366;2022-09-09T15:38:21;4.00;;;1.30;;
74532;SDS011;63012;51.096;-115.366;2022-09-09T15:41:09;3.40;;;0.60;;
74532;SDS011;63012;51.096;-115.366;2022-09-09T15:43:36;4.20;;;1.00;;
74532;SDS011;63012;51.096;-115.366;2022-09-09T15:46:28;3.60;;;1.00;;
74532;SDS011;63012;51.096;-115.366;2022-09-09T15:52:02;3.30;;;0.50;;
74532;SDS011;63012;51.096;-115.366;2022-09-09T15:54:59;3.50;;;0.90;;
74532;SDS011;63012;51.096;-115.366;2022-09-09T15:57:26;3.20;;;0.70;;
74532;SDS011;63012;51.096;-115.366;2022-09-09T16:00:03;3.30;;;1.10;;
74532;SDS011;63012;51.096;-115.366;2022-09-09T16:02:50;3.20;;;0.60;;
74532;SDS011;63012;51.096;-115.366;2022-09-09T16:05:27;3.70;;;1.00;;
74532;SDS011;63012;51.096;-115.366;2022-09-09T16:08:16;3.60;;;0.90;;
74532;SDS011;63012;51.096;-115.366;2022-09-09T16:11:31;3.10;;;0.80;;
74532;SDS011;63012;51.096;-115.366;2022-09-09T16:14:10;3.60;;;0.80;;
74532;SDS011;63012;51.096;-115.366;2022-09-09T16:17:12;4.90;;;0.80;;
74532;SDS011;63012;51.096;-115.366;2022-09-09T16:20:00;3.40;;;0.80;;
74532;SDS011;63012;51.096;-115.366;2022-09-09T16:22:47;3.60;;;1.10;;
74532;SDS011;63012;51.096;-115.366;2022-09-09T16:25:26;4.40;;;1.00;;
74532;SDS011;63012;51.096;-115.366;2022-09-09T16:28:21;3.50;;;0.80;;
74532;SDS011;63012;51.096;-115.366;2022-09-09T16:30:57;3.30;;;1.00;;
74532;SDS011;63012;51.096;-115.366;2022-09-09T16:33:35;4.00;;;0.60;;
74532;SDS011;63012;51.096;-115.366;2022-09-09T16:36:13;3.50;;;0.60;;
74532;SDS011;63012;51.096;-115.366;2022-09-09T16:39:04;2.90;;;0.60;;
74532;SDS011;63012;51.096;-115.366;2022-09-09T16:41:43;3.30;;;0.70;;
74532;SDS011;63012;51.096;-115.366;2022-09-09T16:44:26;4.20;;;0.70;;
74532;SDS011;63012;51.096;-115.366;2022-09-09T16:47:16;2.60;;;0.60;;
74532;SDS011;63012;51.096;-115.366;2022-09-09T16:49:53;2.90;;;0.80;;
74532;SDS011;63012;51.096;-115.366;2022-09-09T16:52:50;3.00;;;0.60;;
74532;SDS011;63012;51.096;-115.366;2022-09-09T16:55:24;3.20;;;0.80;;
74532;SDS011;63012;51.096;-115.366;2022-09-09T17:01:10;3.30;;;0.70;;
74532;SDS011;63012;51.096;-115.366;2022-09-09T17:04:05;3.10;;;0.80;;
74532;SDS011;63012;51.096;-115.366;2022-09-09T17:06:53;3.20;;;0.50;;
74532;SDS011;63012;51.096;-115.366;2022-09-09T17:09:35;3.20;;;0.70;;
74532;SDS011;63012;51.096;-115.366;2022-09-09T17:12:29;2.50;;;0.60;;
74532;SDS011;63012;51.096;-115.366;2022-09-09T17:14:58;3.90;;;0.90;;
74532;SDS011;63012;51.096;-115.366;2022-09-09T17:17:58;3.40;;;1.00;;
74532;SDS011;63012;51.096;-115.366;2022-09-09T17:20:38;3.50;;;0.90;;
74532;SDS011;63012;51.096;-115.366;2022-09-09T17:23:40;3.20;;;0.70;;
74532;SDS011;63012;51.096;-115.366;2022-09-09T17:26:32;3.80;;;0.70;;
74532;SDS011;63012;51.096;-115.366;2022-09-09T17:29:25;2.70;;;0.40;;
74532;SDS011;63012;51.096;-115.366;2022-09-09T17:32:06;3.80;;;0.80;;
74532;SDS011;63012;51.096;-115.366;2022-09-09T17:34:56;3.80;;;1.00;;
74532;SDS011;63012;51.096;-115.366;2022-09-09T17:37:41;3.90;;;0.90;;
74532;SDS011;63012;51.096;-115.366;2022-09-09T17:40:27;3.60;;;0.60;;
74532;SDS011;63012;51.096;-115.366;2022-09-09T17:42:56;3.50;;;0.80;;
74532;SDS011;63012;51.096;-115.366;2022-09-09T17:49:10;2.90;;;0.60;;